Monday, December 22, 2014
17:44 UTC
  |  Log In   |  Register Free
Airport Search:

Raton Municipal/Crews Field Airport
(KRTN)

Raton Municipal/Crews Field Airport Diagram
No Airport Diagram Available

FAA data valid effective November 13, 2014 - January 08, 2015 (unless otherwise noted).

 
 
 
 
 
 
 
 
 
 
 
 
 
 

Current Aviation Weather for Raton Municipal/Crews Field Airport (KRTN)

The most recent METAR observation for KRTN was updated at: 2120
METAR Summary (Translated METAR)
KRTN
182053Z AUTO 15006KT 10SM CLR 07/M07 A2998 RMK AO2 SLP144 T00721067 56020
KTAD
182054Z AUTO 10009KT 10SM CLR 08/M03 A2999 RMK AO2 SLP154 T00781028 56020
(32 nm NE from KRTN)
KAXX
182055Z AUTO 28008KT 10SM CLR M01/M06 A3004 RMK AO2 T10111061
(42.6 nm SW from KRTN)
TAF
No TAF information found within 50 nm of KRTN
  Airport Weather Conditions for KRTN

 Current Weather at RTN
35° F
Overcast
Northeast winds at 5.8 mph
RTN NOAA Radar

Pressure: 29.78 in
Humidity: 76%
Wind: Northeast at 5.8 MPH (5 KT)
Dew Point: 28.0°F
Visibility: 10.00 mi


Airport Weather Forecast for KRTN

Translated METAR and TAF for KRTN
Translated METAR for KRTN (1745 UTC 22 December 2014)
found at http://aviationweather.gov/adds/metars/
 
METAR text: KRTN 221740Z AUTO 11006KT 2 1/2SM -SN BKN028 OVC039 01/M02 A2976 RMK AO2 SNB17 P0000 T00061022
Conditions at: KRTN (RATON , NM, US) observed 1740 UTC 22 December 2014
Temperature: 0.6°C (33°F)
Dewpoint: -2.2°C (28°F) [RH = 81%]
Pressure (altimeter): 29.76 inches Hg (1007.9 mb)
Winds: from the ESE (110 degrees) at 7 MPH (6 knots; 3.1 m/s)
Visibility: 2.50 miles (4.02 km)
Ceiling: 2800 feet AGL
Clouds: broken clouds at 2800 feet AGL
overcast cloud deck at 3900 feet AGL
Weather: -SN  (light snow)
Translated TAF for KRTN

There is no translated TAF available for this airport

Find All Airport Services Find A Hotel Find A Rental Car Find A Golf Course Find A Restaurant $100 Hamburger



FBO's on the Field
FBO Company Facility Photos Services Transportation Aviation Fuel Prices: Prices include tax
Catering Weather Repair Courtesy Rental Type 100LL JetA JetA+ MOGAS 8087
 
Pegasus Aviation

This FBO has not yet been rated
FS:Phillips 66
Last Updated: Dec-09
Login to update fuel prices
SS:
Contact Pegasus AviationMore FBO Information
 
Add another FBO Facility Photos Catering Weather Repair Courtesy Rental Type 100LL JetA JetA+ MOGAS 8087
Services Transportation Aviation Fuel Prices: Prices include tax


model-print
model-print
model-print
model-print